createdAt,value
2018-09-21T08:10:43.240Z,23.40
2018-09-21T08:13:11.938Z,23.30
2018-09-21T08:15:40.593Z,23.40
2018-09-21T08:18:09.269Z,23.50
2018-09-21T08:20:37.944Z,23.50
2018-09-21T08:23:07.049Z,23.40
2018-09-21T08:25:35.738Z,23.20
2018-09-21T08:28:04.435Z,23.10
2018-09-21T08:30:33.030Z,23.00
2018-09-21T08:33:01.725Z,23.00
2018-09-21T08:35:30.403Z,23.20
2018-09-21T08:37:59.049Z,23.40
2018-09-21T08:40:27.725Z,23.50
2018-09-21T08:42:56.702Z,23.50
2018-09-21T08:45:25.363Z,23.60
2018-09-21T08:47:54.448Z,23.60
2018-09-21T08:50:23.074Z,23.60
2018-09-21T08:52:51.740Z,23.60
2018-09-21T08:55:20.457Z,23.70
2018-09-21T08:57:49.084Z,23.70
2018-09-21T09:00:17.736Z,23.70
2018-09-21T09:02:46.397Z,23.70
2018-09-21T09:05:15.165Z,24.00
2018-09-21T09:07:43.861Z,24.20
2018-09-21T09:10:13.466Z,24.30
2018-09-21T09:12:42.107Z,24.30
2018-09-21T09:15:10.771Z,24.30
2018-09-21T09:17:39.366Z,24.50
2018-09-21T09:20:08.799Z,24.60
2018-09-21T09:22:37.361Z,24.80
2018-09-21T09:25:06.836Z,25.00
2018-09-21T09:27:35.576Z,25.10
2018-09-21T09:30:04.838Z,25.10
2018-09-21T09:32:33.393Z,25.00
2018-09-21T09:35:01.981Z,24.90
2018-09-21T09:37:30.544Z,24.70
2018-09-21T09:39:59.150Z,24.80
2018-09-21T09:42:27.709Z,24.90
2018-09-21T09:44:56.301Z,25.10
2018-09-21T09:47:24.874Z,25.20
2018-09-21T09:49:53.475Z,25.30
2018-09-21T09:52:22.069Z,25.40
2018-09-21T09:54:50.719Z,25.50
2018-09-21T09:57:19.281Z,25.40
2018-09-21T09:59:47.900Z,25.20
2018-09-21T10:02:16.477Z,25.30
2018-09-21T10:04:45.184Z,25.40
2018-09-21T10:07:13.763Z,25.50
2018-09-21T10:09:42.313Z,25.60
2018-09-21T10:12:10.883Z,25.60
2018-09-21T10:14:39.528Z,25.60
2018-09-21T10:17:08.646Z,25.80
2018-09-21T10:19:38.270Z,25.90
2018-09-21T10:22:07.550Z,25.80
2018-09-21T10:24:36.340Z,25.80
2018-09-21T10:27:05.302Z,25.70
2018-09-21T10:29:33.972Z,26.00
2018-09-21T10:32:02.628Z,26.30
2018-09-21T10:34:31.295Z,26.60
2018-09-21T10:36:59.880Z,26.70
2018-09-21T10:39:28.480Z,26.70
2018-09-21T10:41:57.263Z,26.60
2018-09-21T10:44:25.918Z,26.60
2018-09-21T10:46:54.539Z,26.70
2018-09-21T10:49:23.242Z,26.90
2018-09-21T10:51:51.963Z,27.00
2018-09-21T10:54:20.755Z,27.00
2018-09-21T10:56:49.485Z,27.10
2018-09-21T10:59:18.158Z,27.40
2018-09-21T11:01:46.775Z,27.30
2018-09-21T11:04:15.991Z,27.30
2018-09-21T11:06:44.592Z,27.30
2018-09-21T11:09:13.249Z,27.20
2018-09-21T11:11:42.171Z,27.20
2018-09-21T11:14:10.897Z,27.40
2018-09-21T11:16:39.454Z,27.20
2018-09-21T11:19:08.106Z,27.30
2018-09-21T11:21:36.674Z,27.30
2018-09-21T11:24:05.255Z,27.40
2018-09-21T11:26:33.845Z,27.40
2018-09-21T11:29:02.429Z,27.10
2018-09-21T11:31:30.987Z,26.80
2018-09-21T11:33:59.681Z,26.90
2018-09-21T11:36:28.606Z,27.20
2018-09-21T11:38:57.394Z,27.60
2018-09-21T11:41:26.109Z,27.80
2018-09-21T11:43:54.836Z,28.00
2018-09-21T11:46:23.572Z,28.00
2018-09-21T11:48:52.215Z,28.00
2018-09-21T11:51:21.616Z,28.00
2018-09-21T11:53:50.233Z,28.10
2018-09-21T11:56:18.921Z,28.00
2018-09-21T11:58:47.625Z,28.00
2018-09-21T12:01:16.355Z,28.00
2018-09-21T12:03:45.094Z,28.00
2018-09-21T12:06:13.770Z,27.90
2018-09-21T12:08:43.164Z,27.90
2018-09-21T12:11:11.784Z,28.10
2018-09-21T12:13:40.401Z,28.30
2018-09-21T12:16:09.035Z,28.50
2018-09-21T12:18:37.634Z,28.20
2018-09-21T12:21:06.361Z,28.20
2018-09-21T12:23:34.958Z,28.10
2018-09-21T12:26:03.580Z,28.00
2018-09-21T12:28:32.181Z,27.80
2018-09-21T12:31:00.818Z,27.50
2018-09-21T12:33:29.426Z,27.50
2018-09-21T12:35:58.134Z,27.80
2018-09-21T12:38:26.696Z,28.00
2018-09-21T12:40:55.311Z,28.40
2018-09-21T12:43:23.884Z,28.60
2018-09-21T12:45:52.476Z,28.70
2018-09-21T12:48:21.081Z,28.80
2018-09-21T12:50:49.707Z,28.80
2018-09-21T12:53:18.362Z,28.70
2018-09-21T12:55:46.968Z,28.50
2018-09-21T12:58:15.676Z,28.50
2018-09-21T13:00:49.536Z,28.70
2018-09-21T13:03:18.171Z,28.90
2018-09-21T13:05:46.848Z,28.90
2018-09-21T13:08:15.510Z,28.80
2018-09-21T13:10:44.127Z,28.80
2018-09-21T13:13:12.726Z,28.80
2018-09-21T13:15:41.353Z,28.90
2018-09-21T13:18:09.944Z,29.10
2018-09-21T13:20:38.535Z,29.10
2018-09-21T13:23:07.193Z,29.10
2018-09-21T13:25:35.857Z,29.10
2018-09-21T13:28:04.460Z,29.00
2018-09-21T13:30:33.043Z,29.10
2018-09-21T13:33:03.805Z,29.40
2018-09-21T13:35:33.000Z,29.40
2018-09-21T13:38:01.725Z,29.40
2018-09-21T13:40:30.321Z,29.20
2018-09-21T13:42:58.962Z,29.00
2018-09-21T13:45:27.562Z,29.00
2018-09-21T13:47:56.169Z,29.00
2018-09-21T13:50:24.824Z,29.00
2018-09-21T13:52:53.712Z,28.80
2018-09-21T13:55:22.881Z,28.80
2018-09-21T13:57:51.548Z,28.70
2018-09-21T14:00:20.162Z,28.70
2018-09-21T14:02:48.757Z,28.60
2018-09-21T14:05:17.328Z,28.70
2018-09-21T14:07:45.893Z,28.70
2018-09-21T14:10:14.469Z,28.70
2018-09-21T14:12:43.039Z,28.60
2018-09-21T14:15:11.606Z,28.60
2018-09-21T14:17:40.181Z,28.50
2018-09-21T14:20:08.761Z,28.50
2018-09-21T14:22:37.303Z,28.40
2018-09-21T14:25:05.843Z,28.40
2018-09-21T14:27:34.409Z,28.40
2018-09-21T14:30:03.833Z,28.30
2018-09-21T14:32:32.417Z,28.30
2018-09-21T14:35:00.978Z,28.30
2018-09-21T14:37:29.649Z,28.20
2018-09-21T14:39:58.177Z,28.00
2018-09-21T14:42:26.755Z,27.80
2018-09-21T14:44:55.332Z,27.70
2018-09-21T14:47:23.932Z,27.70
2018-09-21T14:49:52.475Z,27.80
2018-09-21T14:52:21.147Z,27.90
2018-09-21T14:54:49.722Z,27.90
2018-09-21T14:57:18.338Z,27.90
2018-09-21T14:59:47.091Z,27.90
2018-09-21T15:02:15.601Z,27.90
2018-09-21T15:04:44.174Z,28.00
2018-09-21T15:07:12.759Z,27.90
2018-09-21T15:09:41.341Z,27.80
2018-09-21T15:12:09.995Z,27.60
2018-09-21T15:14:38.563Z,27.50
2018-09-21T15:17:07.134Z,27.40
2018-09-21T15:19:35.682Z,27.30
2018-09-21T15:22:04.235Z,27.20
2018-09-21T15:24:32.878Z,27.10
2018-09-21T15:27:01.628Z,27.00
2018-09-21T15:29:30.217Z,26.90
2018-09-21T15:31:58.858Z,26.90
2018-09-21T15:34:27.424Z,26.80
2018-09-21T15:36:55.982Z,26.80
2018-09-21T15:39:24.548Z,26.70
2018-09-21T15:41:53.144Z,26.70
2018-09-21T15:44:21.690Z,26.60
2018-09-21T15:46:50.276Z,26.60
2018-09-21T15:49:18.987Z,26.60
2018-09-21T15:51:47.853Z,26.50
2018-09-21T15:54:16.533Z,26.50
2018-09-21T15:56:45.089Z,26.50
2018-09-21T15:59:13.645Z,26.50
2018-09-21T16:01:42.192Z,26.40
2018-09-21T16:04:10.736Z,26.30
2018-09-21T16:06:39.397Z,26.20
2018-09-21T16:09:08.985Z,26.10
2018-09-21T16:11:38.385Z,26.10
2018-09-21T16:14:07.581Z,26.10
2018-09-21T16:16:36.896Z,26.00
2018-09-21T16:19:05.662Z,26.00
2018-09-21T16:21:34.305Z,25.90
2018-09-21T16:24:02.874Z,25.90
2018-09-21T16:26:31.763Z,25.80
2018-09-21T16:29:00.331Z,25.70
2018-09-21T16:31:28.895Z,25.70
2018-09-21T16:33:57.482Z,25.60
2018-09-21T16:36:26.024Z,25.50
2018-09-21T16:38:54.604Z,25.50
2018-09-21T16:41:23.204Z,25.30
2018-09-21T16:43:51.802Z,25.10
2018-09-21T16:46:20.423Z,25.00
2018-09-21T16:48:49.003Z,24.80
2018-09-21T16:51:18.078Z,24.60
2018-09-21T16:53:46.698Z,24.10
2018-09-21T16:56:15.352Z,23.90
2018-09-21T16:58:43.933Z,23.30
